sensor_id;sensor_type;location;lat;lon;timestamp;P1;durP1;ratioP1;P2;durP2;ratioP2
74593;SDS011;63097;51.872;4.460;2022-08-30T00:01:44;8.05;;;4.85;;
74593;SDS011;63097;51.872;4.460;2022-08-30T00:04:10;7.45;;;4.80;;
74593;SDS011;63097;51.872;4.460;2022-08-30T00:06:35;8.95;;;4.70;;
74593;SDS011;63097;51.872;4.460;2022-08-30T00:09:00;6.80;;;4.85;;
74593;SDS011;63097;51.872;4.460;2022-08-30T00:11:26;8.82;;;4.22;;
74593;SDS011;63097;51.872;4.460;2022-08-30T00:13:52;7.00;;;4.47;;
74593;SDS011;63097;51.872;4.460;2022-08-30T00:16:20;5.63;;;4.30;;
74593;SDS011;63097;51.872;4.460;2022-08-30T00:18:46;5.20;;;4.22;;
74593;SDS011;63097;51.872;4.460;2022-08-30T00:21:12;4.00;;;3.45;;
74593;SDS011;63097;51.872;4.460;2022-08-30T00:23:38;12.32;;;4.18;;
74593;SDS011;63097;51.872;4.460;2022-08-30T00:26:04;4.97;;;3.85;;
74593;SDS011;63097;51.872;4.460;2022-08-30T00:28:30;7.10;;;4.10;;
74593;SDS011;63097;51.872;4.460;2022-08-30T00:30:56;6.80;;;3.92;;
74593;SDS011;63097;51.872;4.460;2022-08-30T00:33:22;19.40;;;4.35;;
74593;SDS011;63097;51.872;4.460;2022-08-30T00:35:48;6.43;;;4.32;;
74593;SDS011;63097;51.872;4.460;2022-08-30T00:38:13;11.02;;;4.63;;
74593;SDS011;63097;51.872;4.460;2022-08-30T00:40:40;6.25;;;4.15;;
74593;SDS011;63097;51.872;4.460;2022-08-30T00:43:10;9.88;;;4.35;;
74593;SDS011;63097;51.872;4.460;2022-08-30T00:45:38;6.95;;;4.05;;
74593;SDS011;63097;51.872;4.460;2022-08-30T00:48:06;6.60;;;4.10;;
74593;SDS011;63097;51.872;4.460;2022-08-30T00:50:33;4.60;;;3.70;;
74593;SDS011;63097;51.872;4.460;2022-08-30T00:53:03;7.28;;;4.10;;
74593;SDS011;63097;51.872;4.460;2022-08-30T00:55:30;9.18;;;4.07;;
74593;SDS011;63097;51.872;4.460;2022-08-30T00:57:57;8.65;;;4.03;;
74593;SDS011;63097;51.872;4.460;2022-08-30T01:00:25;6.47;;;4.05;;
74593;SDS011;63097;51.872;4.460;2022-08-30T01:02:51;6.22;;;3.80;;
74593;SDS011;63097;51.872;4.460;2022-08-30T01:05:16;4.35;;;3.50;;
74593;SDS011;63097;51.872;4.460;2022-08-30T01:07:43;5.15;;;3.63;;
74593;SDS011;63097;51.872;4.460;2022-08-30T01:10:09;6.65;;;4.03;;
74593;SDS011;63097;51.872;4.460;2022-08-30T01:12:39;6.00;;;3.47;;
74593;SDS011;63097;51.872;4.460;2022-08-30T01:15:07;6.00;;;4.10;;
74593;SDS011;63097;51.872;4.460;2022-08-30T01:17:34;5.28;;;3.50;;
74593;SDS011;63097;51.872;4.460;2022-08-30T01:20:02;6.18;;;3.83;;
74593;SDS011;63097;51.872;4.460;2022-08-30T01:22:33;6.40;;;3.50;;
74593;SDS011;63097;51.872;4.460;2022-08-30T01:25:06;5.03;;;3.28;;
74593;SDS011;63097;51.872;4.460;2022-08-30T01:27:33;5.10;;;3.50;;
74593;SDS011;63097;51.872;4.460;2022-08-30T01:30:03;5.32;;;3.42;;
74593;SDS011;63097;51.872;4.460;2022-08-30T01:32:30;3.78;;;3.35;;
74593;SDS011;63097;51.872;4.460;2022-08-30T01:34:55;3.65;;;3.00;;
74593;SDS011;63097;51.872;4.460;2022-08-30T01:37:26;3.80;;;2.88;;
74593;SDS011;63097;51.872;4.460;2022-08-30T01:39:55;3.58;;;3.08;;
74593;SDS011;63097;51.872;4.460;2022-08-30T01:42:21;4.15;;;2.85;;
74593;SDS011;63097;51.872;4.460;2022-08-30T01:44:46;3.80;;;3.03;;
74593;SDS011;63097;51.872;4.460;2022-08-30T01:47:12;2.78;;;2.45;;
74593;SDS011;63097;51.872;4.460;2022-08-30T01:49:38;5.88;;;2.83;;
74593;SDS011;63097;51.872;4.460;2022-08-30T01:52:04;4.07;;;2.60;;
74593;SDS011;63097;51.872;4.460;2022-08-30T01:54:30;4.72;;;2.50;;
74593;SDS011;63097;51.872;4.460;2022-08-30T01:56:57;2.78;;;2.30;;
74593;SDS011;63097;51.872;4.460;2022-08-30T01:59:22;5.15;;;2.42;;
74593;SDS011;63097;51.872;4.460;2022-08-30T02:01:47;3.75;;;1.77;;
74593;SDS011;63097;51.872;4.460;2022-08-30T02:04:13;5.30;;;2.42;;
74593;SDS011;63097;51.872;4.460;2022-08-30T02:06:38;3.45;;;2.17;;
74593;SDS011;63097;51.872;4.460;2022-08-30T02:09:04;2.72;;;2.00;;
74593;SDS011;63097;51.872;4.460;2022-08-30T02:11:29;2.90;;;2.30;;
74593;SDS011;63097;51.872;4.460;2022-08-30T02:13:55;3.10;;;2.05;;
74593;SDS011;63097;51.872;4.460;2022-08-30T02:16:21;4.47;;;1.77;;
74593;SDS011;63097;51.872;4.460;2022-08-30T02:18:47;2.30;;;2.00;;
74593;SDS011;63097;51.872;4.460;2022-08-30T02:21:13;3.95;;;1.60;;
74593;SDS011;63097;51.872;4.460;2022-08-30T02:23:40;2.45;;;1.63;;
74593;SDS011;63097;51.872;4.460;2022-08-30T02:26:05;3.67;;;1.80;;
74593;SDS011;63097;51.872;4.460;2022-08-30T02:28:31;2.22;;;1.52;;
74593;SDS011;63097;51.872;4.460;2022-08-30T02:30:56;4.50;;;1.50;;
74593;SDS011;63097;51.872;4.460;2022-08-30T02:33:22;3.50;;;1.48;;
74593;SDS011;63097;51.872;4.460;2022-08-30T02:35:47;3.28;;;1.38;;
74593;SDS011;63097;51.872;4.460;2022-08-30T02:38:13;4.00;;;1.35;;
74593;SDS011;63097;51.872;4.460;2022-08-30T02:40:38;3.38;;;1.70;;
74593;SDS011;63097;51.872;4.460;2022-08-30T02:43:04;1.65;;;1.10;;
74593;SDS011;63097;51.872;4.460;2022-08-30T02:45:29;3.25;;;1.42;;
74593;SDS011;63097;51.872;4.460;2022-08-30T02:47:57;1.60;;;1.15;;
74593;SDS011;63097;51.872;4.460;2022-08-30T02:50:23;2.42;;;1.40;;
74593;SDS011;63097;51.872;4.460;2022-08-30T02:52:49;1.95;;;1.30;;
74593;SDS011;63097;51.872;4.460;2022-08-30T02:55:15;1.98;;;1.10;;
74593;SDS011;63097;51.872;4.460;2022-08-30T02:57:41;1.25;;;0.90;;
74593;SDS011;63097;51.872;4.460;2022-08-30T03:00:07;4.10;;;1.08;;
74593;SDS011;63097;51.872;4.460;2022-08-30T03:02:33;1.48;;;1.00;;
74593;SDS011;63097;51.872;4.460;2022-08-30T03:04:59;1.38;;;1.08;;
74593;SDS011;63097;51.872;4.460;2022-08-30T03:07:24;3.38;;;1.10;;
74593;SDS011;63097;51.872;4.460;2022-08-30T03:09:50;2.05;;;1.30;;
74593;SDS011;63097;51.872;4.460;2022-08-30T03:12:16;6.50;;;1.30;;
74593;SDS011;63097;51.872;4.460;2022-08-30T03:14:41;2.63;;;1.08;;
74593;SDS011;63097;51.872;4.460;2022-08-30T03:17:07;1.85;;;0.98;;
74593;SDS011;63097;51.872;4.460;2022-08-30T03:19:33;1.20;;;1.10;;
74593;SDS011;63097;51.872;4.460;2022-08-30T03:21:59;1.70;;;1.10;;
74593;SDS011;63097;51.872;4.460;2022-08-30T03:24:25;5.30;;;0.93;;
74593;SDS011;63097;51.872;4.460;2022-08-30T03:26:50;2.83;;;0.98;;
74593;SDS011;63097;51.872;4.460;2022-08-30T03:29:16;1.58;;;1.05;;
74593;SDS011;63097;51.872;4.460;2022-08-30T03:31:41;0.88;;;0.80;;
74593;SDS011;63097;51.872;4.460;2022-08-30T03:34:07;3.25;;;0.90;;
74593;SDS011;63097;51.872;4.460;2022-08-30T03:36:32;1.88;;;0.80;;
74593;SDS011;63097;51.872;4.460;2022-08-30T03:38:57;1.50;;;0.80;;
74593;SDS011;63097;51.872;4.460;2022-08-30T03:41:23;1.88;;;1.10;;
74593;SDS011;63097;51.872;4.460;2022-08-30T03:43:48;1.73;;;0.90;;
74593;SDS011;63097;51.872;4.460;2022-08-30T03:46:14;2.03;;;0.98;;
74593;SDS011;63097;51.872;4.460;2022-08-30T03:48:39;3.15;;;1.02;;
74593;SDS011;63097;51.872;4.460;2022-08-30T03:51:05;1.10;;;0.82;;
74593;SDS011;63097;51.872;4.460;2022-08-30T03:53:30;2.05;;;1.08;;
74593;SDS011;63097;51.872;4.460;2022-08-30T03:55:56;1.15;;;0.77;;
74593;SDS011;63097;51.872;4.460;2022-08-30T03:58:21;2.60;;;0.90;;
74593;SDS011;63097;51.872;4.460;2022-08-30T04:00:46;0.95;;;0.68;;
74593;SDS011;63097;51.872;4.460;2022-08-30T04:03:12;1.65;;;0.80;;
74593;SDS011;63097;51.872;4.460;2022-08-30T04:05:37;1.23;;;0.98;;
74593;SDS011;63097;51.872;4.460;2022-08-30T04:08:02;1.77;;;0.65;;
74593;SDS011;63097;51.872;4.460;2022-08-30T04:10:28;0.85;;;0.80;;
74593;SDS011;63097;51.872;4.460;2022-08-30T04:12:53;1.85;;;0.93;;
74593;SDS011;63097;51.872;4.460;2022-08-30T04:15:18;1.58;;;0.80;;
74593;SDS011;63097;51.872;4.460;2022-08-30T04:17:44;0.85;;;0.60;;
74593;SDS011;63097;51.872;4.460;2022-08-30T04:20:10;1.20;;;0.80;;
74593;SDS011;63097;51.872;4.460;2022-08-30T04:22:35;2.72;;;0.73;;
74593;SDS011;63097;51.872;4.460;2022-08-30T04:25:01;0.73;;;0.70;;
74593;SDS011;63097;51.872;4.460;2022-08-30T04:27:27;1.38;;;0.70;;
74593;SDS011;63097;51.872;4.460;2022-08-30T04:29:53;1.75;;;0.80;;
74593;SDS011;63097;51.872;4.460;2022-08-30T04:32:18;1.08;;;0.80;;
74593;SDS011;63097;51.872;4.460;2022-08-30T04:34:43;0.93;;;0.80;;
74593;SDS011;63097;51.872;4.460;2022-08-30T04:37:09;0.80;;;0.65;;
74593;SDS011;63097;51.872;4.460;2022-08-30T04:39:34;1.17;;;0.65;;
74593;SDS011;63097;51.872;4.460;2022-08-30T04:41:59;0.70;;;0.60;;
74593;SDS011;63097;51.872;4.460;2022-08-30T04:44:25;5.00;;;0.70;;
74593;SDS011;63097;51.872;4.460;2022-08-30T04:46:50;0.63;;;0.60;;
74593;SDS011;63097;51.872;4.460;2022-08-30T04:49:15;1.48;;;0.60;;
74593;SDS011;63097;51.872;4.460;2022-08-30T04:51:41;2.55;;;0.63;;
74593;SDS011;63097;51.872;4.460;2022-08-30T04:54:06;2.97;;;0.50;;
74593;SDS011;63097;51.872;4.460;2022-08-30T04:56:31;0.80;;;0.60;;
74593;SDS011;63097;51.872;4.460;2022-08-30T04:58:57;2.17;;;0.80;;
74593;SDS011;63097;51.872;4.460;2022-08-30T05:01:23;2.05;;;0.60;;
74593;SDS011;63097;51.872;4.460;2022-08-30T05:03:51;0.52;;;0.52;;
74593;SDS011;63097;51.872;4.460;2022-08-30T05:06:18;1.33;;;0.75;;
74593;SDS011;63097;51.872;4.460;2022-08-30T05:08:44;1.08;;;0.70;;
74593;SDS011;63097;51.872;4.460;2022-08-30T05:11:10;0.50;;;0.50;;
74593;SDS011;63097;51.872;4.460;2022-08-30T05:13:36;0.70;;;0.60;;
74593;SDS011;63097;51.872;4.460;2022-08-30T05:16:03;0.85;;;0.63;;
74593;SDS011;63097;51.872;4.460;2022-08-30T05:18:30;3.63;;;0.73;;
74593;SDS011;63097;51.872;4.460;2022-08-30T05:21:09;2.17;;;0.70;;
74593;SDS011;63097;51.872;4.460;2022-08-30T05:23:36;0.52;;;0.50;;
74593;SDS011;63097;51.872;4.460;2022-08-30T05:26:04;0.73;;;0.55;;
74593;SDS011;63097;51.872;4.460;2022-08-30T05:28:34;1.13;;;0.70;;
74593;SDS011;63097;51.872;4.460;2022-08-30T05:31:00;3.03;;;0.90;;
74593;SDS011;63097;51.872;4.460;2022-08-30T05:33:25;1.58;;;0.60;;
74593;SDS011;63097;51.872;4.460;2022-08-30T05:35:51;0.75;;;0.60;;
74593;SDS011;63097;51.872;4.460;2022-08-30T05:38:17;1.63;;;0.65;;
74593;SDS011;63097;51.872;4.460;2022-08-30T05:40:42;1.15;;;0.70;;
74593;SDS011;63097;51.872;4.460;2022-08-30T05:43:08;0.70;;;0.68;;
74593;SDS011;63097;51.872;4.460;2022-08-30T05:45:34;0.90;;;0.60;;
74593;SDS011;63097;51.872;4.460;2022-08-30T05:47:59;0.98;;;0.70;;
74593;SDS011;63097;51.872;4.460;2022-08-30T05:50:25;0.85;;;0.68;;
74593;SDS011;63097;51.872;4.460;2022-08-30T05:52:50;0.80;;;0.70;;
74593;SDS011;63097;51.872;4.460;2022-08-30T05:55:15;5.38;;;0.52;;
74593;SDS011;63097;51.872;4.460;2022-08-30T05:57:41;1.15;;;0.68;;
74593;SDS011;63097;51.872;4.460;2022-08-30T06:00:07;1.30;;;0.80;;
74593;SDS011;63097;51.872;4.460;2022-08-30T06:02:35;0.90;;;0.70;;
74593;SDS011;63097;51.872;4.460;2022-08-30T06:05:01;1.42;;;1.00;;
74593;SDS011;63097;51.872;4.460;2022-08-30T06:07:27;2.13;;;0.60;;
74593;SDS011;63097;51.872;4.460;2022-08-30T06:09:52;1.77;;;0.68;;
74593;SDS011;63097;51.872;4.460;2022-08-30T06:12:18;2.55;;;0.50;;
74593;SDS011;63097;51.872;4.460;2022-08-30T06:14:43;2.67;;;0.60;;
74593;SDS011;63097;51.872;4.460;2022-08-30T06:17:08;1.52;;;0.60;;
74593;SDS011;63097;51.872;4.460;2022-08-30T06:19:33;1.73;;;0.50;;
74593;SDS011;63097;51.872;4.460;2022-08-30T06:21:59;1.42;;;0.60;;
74593;SDS011;63097;51.872;4.460;2022-08-30T06:24:24;4.28;;;0.70;;
74593;SDS011;63097;51.872;4.460;2022-08-30T06:26:49;1.10;;;0.60;;
74593;SDS011;63097;51.872;4.460;2022-08-30T06:29:16;3.20;;;0.93;;
74593;SDS011;63097;51.872;4.460;2022-08-30T06:31:43;2.13;;;0.80;;
74593;SDS011;63097;51.872;4.460;2022-08-30T06:34:09;2.45;;;0.82;;
74593;SDS011;63097;51.872;4.460;2022-08-30T06:36:34;8.38;;;0.90;;
74593;SDS011;63097;51.872;4.460;2022-08-30T06:38:59;4.72;;;1.00;;
74593;SDS011;63097;51.872;4.460;2022-08-30T06:41:26;3.38;;;0.85;;
74593;SDS011;63097;51.872;4.460;2022-08-30T06:43:53;2.60;;;0.90;;
74593;SDS011;63097;51.872;4.460;2022-08-30T06:46:23;6.60;;;1.13;;
74593;SDS011;63097;51.872;4.460;2022-08-30T06:48:50;2.03;;;0.80;;
74593;SDS011;63097;51.872;4.460;2022-08-30T06:51:20;3.25;;;1.00;;
74593;SDS011;63097;51.872;4.460;2022-08-30T06:53:47;6.55;;;1.10;;
74593;SDS011;63097;51.872;4.460;2022-08-30T06:56:12;4.40;;;1.17;;
74593;SDS011;63097;51.872;4.460;2022-08-30T06:58:38;4.20;;;1.45;;
74593;SDS011;63097;51.872;4.460;2022-08-30T07:01:04;2.47;;;1.30;;
74593;SDS011;63097;51.872;4.460;2022-08-30T07:03:30;4.85;;;1.30;;
74593;SDS011;63097;51.872;4.460;2022-08-30T07:05:55;3.42;;;1.15;;
74593;SDS011;63097;51.872;4.460;2022-08-30T07:08:21;3.55;;;1.13;;
74593;SDS011;63097;51.872;4.460;2022-08-30T07:10:48;3.10;;;1.13;;
74593;SDS011;63097;51.872;4.460;2022-08-30T07:13:14;7.40;;;1.15;;
74593;SDS011;63097;51.872;4.460;2022-08-30T07:15:41;4.28;;;1.17;;
74593;SDS011;63097;51.872;4.460;2022-08-30T07:18:08;2.08;;;0.95;;
74593;SDS011;63097;51.872;4.460;2022-08-30T07:20:37;3.35;;;1.38;;
74593;SDS011;63097;51.872;4.460;2022-08-30T07:23:02;4.40;;;1.10;;
74593;SDS011;63097;51.872;4.460;2022-08-30T07:25:28;3.83;;;0.95;;
74593;SDS011;63097;51.872;4.460;2022-08-30T07:27:53;3.92;;;1.00;;
74593;SDS011;63097;51.872;4.460;2022-08-30T07:30:18;2.25;;;1.00;;
74593;SDS011;63097;51.872;4.460;2022-08-30T07:32:44;3.45;;;1.13;;
74593;SDS011;63097;51.872;4.460;2022-08-30T07:35:09;19.47;;;1.27;;
74593;SDS011;63097;51.872;4.460;2022-08-30T07:37:34;22.93;;;1.33;;
74593;SDS011;63097;51.872;4.460;2022-08-30T07:40:00;7.20;;;1.30;;
74593;SDS011;63097;51.872;4.460;2022-08-30T07:42:26;9.18;;;2.10;;
74593;SDS011;63097;51.872;4.460;2022-08-30T07:44:51;8.02;;;2.20;;
74593;SDS011;63097;51.872;4.460;2022-08-30T07:47:16;6.63;;;2.30;;
74593;SDS011;63097;51.872;4.460;2022-08-30T07:49:41;6.45;;;2.42;;
74593;SDS011;63097;51.872;4.460;2022-08-30T07:52:07;7.90;;;2.33;;
74593;SDS011;63097;51.872;4.460;2022-08-30T07:54:33;7.75;;;2.50;;
74593;SDS011;63097;51.872;4.460;2022-08-30T07:56:58;6.43;;;2.50;;
74593;SDS011;63097;51.872;4.460;2022-08-30T07:59:24;7.55;;;2.50;;
74593;SDS011;63097;51.872;4.460;2022-08-30T08:01:49;12.13;;;2.47;;
74593;SDS011;63097;51.872;4.460;2022-08-30T08:04:14;8.07;;;2.53;;
74593;SDS011;63097;51.872;4.460;2022-08-30T08:06:40;6.18;;;2.50;;
74593;SDS011;63097;51.872;4.460;2022-08-30T08:09:06;9.32;;;2.83;;
74593;SDS011;63097;51.872;4.460;2022-08-30T08:11:33;6.57;;;1.98;;
74593;SDS011;63097;51.872;4.460;2022-08-30T08:13:59;7.43;;;2.60;;
74593;SDS011;63097;51.872;4.460;2022-08-30T08:16:26;6.35;;;2.10;;
74593;SDS011;63097;51.872;4.460;2022-08-30T08:18:53;9.98;;;2.40;;
74593;SDS011;63097;51.872;4.460;2022-08-30T08:21:20;6.88;;;2.15;;
74593;SDS011;63097;51.872;4.460;2022-08-30T08:23:46;5.50;;;1.80;;
74593;SDS011;63097;51.872;4.460;2022-08-30T08:26:12;5.75;;;1.80;;
74593;SDS011;63097;51.872;4.460;2022-08-30T08:28:37;4.75;;;1.90;;
74593;SDS011;63097;51.872;4.460;2022-08-30T08:31:03;4.45;;;1.88;;
74593;SDS011;63097;51.872;4.460;2022-08-30T08:33:55;3.67;;;1.75;;
74593;SDS011;63097;51.872;4.460;2022-08-30T08:36:21;3.65;;;1.55;;
74593;SDS011;63097;51.872;4.460;2022-08-30T08:38:46;4.90;;;1.70;;
74593;SDS011;63097;51.872;4.460;2022-08-30T08:41:17;11.88;;;2.05;;
74593;SDS011;63097;51.872;4.460;2022-08-30T08:43:47;4.10;;;1.40;;
74593;SDS011;63097;51.872;4.460;2022-08-30T08:46:15;5.65;;;1.60;;
74593;SDS011;63097;51.872;4.460;2022-08-30T08:48:55;3.33;;;1.45;;
74593;SDS011;63097;51.872;4.460;2022-08-30T08:51:26;3.75;;;1.40;;
74593;SDS011;63097;51.872;4.460;2022-08-30T08:54:03;6.15;;;1.58;;
74593;SDS011;63097;51.872;4.460;2022-08-30T08:56:32;3.08;;;1.20;;
74593;SDS011;63097;51.872;4.460;2022-08-30T08:58:58;1.92;;;1.17;;
74593;SDS011;63097;51.872;4.460;2022-08-30T09:01:25;4.05;;;1.23;;
74593;SDS011;63097;51.872;4.460;2022-08-30T09:03:53;3.22;;;1.10;;
74593;SDS011;63097;51.872;4.460;2022-08-30T09:09:18;3.47;;;0.90;;
74593;SDS011;63097;51.872;4.460;2022-08-30T09:11:50;2.15;;;1.02;;
74593;SDS011;63097;51.872;4.460;2022-08-30T09:14:17;2.30;;;1.10;;
74593;SDS011;63097;51.872;4.460;2022-08-30T09:16:50;3.28;;;0.90;;
74593;SDS011;63097;51.872;4.460;2022-08-30T09:19:43;1.63;;;1.00;;
74593;SDS011;63097;51.872;4.460;2022-08-30T09:22:19;1.73;;;0.85;;
74593;SDS011;63097;51.872;4.460;2022-08-30T09:27:43;1.38;;;0.75;;
74593;SDS011;63097;51.872;4.460;2022-08-30T09:30:15;1.67;;;0.85;;
74593;SDS011;63097;51.872;4.460;2022-08-30T09:32:52;2.08;;;0.70;;
74593;SDS011;63097;51.872;4.460;2022-08-30T09:35:24;3.00;;;0.80;;
74593;SDS011;63097;51.872;4.460;2022-08-30T09:38:11;3.17;;;0.80;;
74593;SDS011;63097;51.872;4.460;2022-08-30T09:40:58;2.35;;;0.93;;
74593;SDS011;63097;51.872;4.460;2022-08-30T09:43:26;1.25;;;0.75;;
74593;SDS011;63097;51.872;4.460;2022-08-30T09:59:47;1.60;;;0.88;;
74593;SDS011;63097;51.872;4.460;2022-08-30T10:16:54;1.02;;;0.60;;
74593;SDS011;63097;51.872;4.460;2022-08-30T10:21:47;1.42;;;0.70;;
74593;SDS011;63097;51.872;4.460;2022-08-30T10:24:19;1.75;;;0.70;;
74593;SDS011;63097;51.872;4.460;2022-08-30T10:26:59;2.40;;;0.77;;
74593;SDS011;63097;51.872;4.460;2022-08-30T10:29:31;3.67;;;0.70;;
74593;SDS011;63097;51.872;4.460;2022-08-30T10:32:10;1.50;;;1.00;;
74593;SDS011;63097;51.872;4.460;2022-08-30T10:35:05;9.23;;;0.90;;
74593;SDS011;63097;51.872;4.460;2022-08-30T10:37:33;2.47;;;0.88;;
74593;SDS011;63097;51.872;4.460;2022-08-30T10:40:11;4.32;;;0.88;;
74593;SDS011;63097;51.872;4.460;2022-08-30T10:42:41;2.97;;;0.70;;
74593;SDS011;63097;51.872;4.460;2022-08-30T10:45:08;3.00;;;0.70;;
74593;SDS011;63097;51.872;4.460;2022-08-30T10:47:49;1.52;;;0.90;;
74593;SDS011;63097;51.872;4.460;2022-08-30T10:50:24;6.30;;;1.00;;
74593;SDS011;63097;51.872;4.460;2022-08-30T10:55:50;3.17;;;1.20;;
74593;SDS011;63097;51.872;4.460;2022-08-30T10:58:18;5.15;;;1.45;;
74593;SDS011;63097;51.872;4.460;2022-08-30T11:01:05;4.38;;;0.95;;
74593;SDS011;63097;51.872;4.460;2022-08-30T11:03:45;3.42;;;0.85;;
74593;SDS011;63097;51.872;4.460;2022-08-30T11:06:20;4.43;;;0.80;;
74593;SDS011;63097;51.872;4.460;2022-08-30T11:09:01;3.95;;;1.00;;
74593;SDS011;63097;51.872;4.460;2022-08-30T11:11:56;3.88;;;1.05;;
74593;SDS011;63097;51.872;4.460;2022-08-30T11:14:43;5.47;;;0.93;;
74593;SDS011;63097;51.872;4.460;2022-08-30T11:19:52;4.37;;;0.70;;
74593;SDS011;63097;51.872;4.460;2022-08-30T11:22:23;3.88;;;1.10;;
74593;SDS011;63097;51.872;4.460;2022-08-30T11:25:06;5.30;;;0.88;;
74593;SDS011;63097;51.872;4.460;2022-08-30T11:27:57;7.18;;;0.88;;
74593;SDS011;63097;51.872;4.460;2022-08-30T11:32:58;4.83;;;0.80;;
74593;SDS011;63097;51.872;4.460;2022-08-30T11:35:43;3.70;;;0.90;;
74593;SDS011;63097;51.872;4.460;2022-08-30T11:40:50;1.52;;;0.80;;
74593;SDS011;63097;51.872;4.460;2022-08-30T11:48:44;5.43;;;0.88;;
74593;SDS011;63097;51.872;4.460;2022-08-30T11:51:35;4.55;;;1.00;;
74593;SDS011;63097;51.872;4.460;2022-08-30T11:54:10;5.05;;;0.82;;
74593;SDS011;63097;51.872;4.460;2022-08-30T11:59:36;7.55;;;0.60;;
74593;SDS011;63097;51.872;4.460;2022-08-30T12:05:07;4.93;;;0.77;;
74593;SDS011;63097;51.872;4.460;2022-08-30T12:10:34;1.10;;;0.77;;
74593;SDS011;63097;51.872;4.460;2022-08-30T12:13:05;4.30;;;0.85;;
74593;SDS011;63097;51.872;4.460;2022-08-30T12:18:21;2.80;;;0.70;;
74593;SDS011;63097;51.872;4.460;2022-08-30T12:20:51;2.47;;;0.88;;
74593;SDS011;63097;51.872;4.460;2022-08-30T12:23:40;4.72;;;1.00;;
74593;SDS011;63097;51.872;4.460;2022-08-30T12:26:16;7.43;;;0.85;;
74593;SDS011;63097;51.872;4.460;2022-08-30T12:28:42;4.80;;;1.10;;
74593;SDS011;63097;51.872;4.460;2022-08-30T12:31:10;8.05;;;0.90;;
74593;SDS011;63097;51.872;4.460;2022-08-30T12:33:47;6.05;;;0.82;;
74593;SDS011;63097;51.872;4.460;2022-08-30T12:36:39;2.38;;;0.80;;
74593;SDS011;63097;51.872;4.460;2022-08-30T12:39:15;2.45;;;0.68;;
74593;SDS011;63097;51.872;4.460;2022-08-30T12:41:43;3.33;;;0.90;;
74593;SDS011;63097;51.872;4.460;2022-08-30T12:44:11;3.30;;;0.70;;
74593;SDS011;63097;51.872;4.460;2022-08-30T12:46:41;0.82;;;0.63;;
74593;SDS011;63097;51.872;4.460;2022-08-30T12:49:09;6.03;;;0.90;;
74593;SDS011;63097;51.872;4.460;2022-08-30T12:51:41;4.68;;;0.82;;
74593;SDS011;63097;51.872;4.460;2022-08-30T12:54:21;1.17;;;0.65;;
74593;SDS011;63097;51.872;4.460;2022-08-30T12:56:53;2.90;;;0.70;;
74593;SDS011;63097;51.872;4.460;2022-08-30T12:59:40;2.75;;;0.73;;
74593;SDS011;63097;51.872;4.460;2022-08-30T13:02:14;3.92;;;0.77;;
74593;SDS011;63097;51.872;4.460;2022-08-30T13:04:45;6.43;;;0.60;;
74593;SDS011;63097;51.872;4.460;2022-08-30T13:07:25;2.85;;;0.80;;
74593;SDS011;63097;51.872;4.460;2022-08-30T13:10:12;5.55;;;0.80;;
74593;SDS011;63097;51.872;4.460;2022-08-30T13:12:47;4.55;;;0.80;;
74593;SDS011;63097;51.872;4.460;2022-08-30T13:15:26;2.80;;;0.70;;
74593;SDS011;63097;51.872;4.460;2022-08-30T13:18:10;3.40;;;0.80;;
74593;SDS011;63097;51.872;4.460;2022-08-30T13:21:08;2.33;;;0.85;;
74593;SDS011;63097;51.872;4.460;2022-08-30T13:23:55;0.70;;;0.70;;
74593;SDS011;63097;51.872;4.460;2022-08-30T13:26:29;1.90;;;0.70;;
74593;SDS011;63097;51.872;4.460;2022-08-30T13:28:59;7.75;;;1.00;;
74593;SDS011;63097;51.872;4.460;2022-08-30T13:31:27;5.88;;;1.00;;
74593;SDS011;63097;51.872;4.460;2022-08-30T13:33:54;2.05;;;0.80;;
74593;SDS011;63097;51.872;4.460;2022-08-30T13:36:20;2.70;;;0.52;;
74593;SDS011;63097;51.872;4.460;2022-08-30T13:38:49;6.72;;;0.82;;
74593;SDS011;63097;51.872;4.460;2022-08-30T13:41:14;6.93;;;0.70;;
74593;SDS011;63097;51.872;4.460;2022-08-30T13:43:40;1.63;;;0.60;;
74593;SDS011;63097;51.872;4.460;2022-08-30T13:46:06;3.88;;;0.73;;
74593;SDS011;63097;51.872;4.460;2022-08-30T13:48:33;3.58;;;0.70;;
74593;SDS011;63097;51.872;4.460;2022-08-30T13:50:59;2.05;;;0.80;;
74593;SDS011;63097;51.872;4.460;2022-08-30T13:53:25;2.22;;;0.77;;
74593;SDS011;63097;51.872;4.460;2022-08-30T13:55:50;1.88;;;0.77;;
74593;SDS011;63097;51.872;4.460;2022-08-30T13:58:16;1.13;;;0.70;;
74593;SDS011;63097;51.872;4.460;2022-08-30T14:00:42;5.22;;;1.08;;
74593;SDS011;63097;51.872;4.460;2022-08-30T14:03:08;2.08;;;0.75;;
74593;SDS011;63097;51.872;4.460;2022-08-30T14:05:34;1.92;;;1.00;;
74593;SDS011;63097;51.872;4.460;2022-08-30T14:08:01;1.77;;;0.65;;
74593;SDS011;63097;51.872;4.460;2022-08-30T14:10:28;6.13;;;1.10;;
74593;SDS011;63097;51.872;4.460;2022-08-30T14:12:55;4.45;;;1.13;;
74593;SDS011;63097;51.872;4.460;2022-08-30T14:15:20;4.43;;;0.90;;
74593;SDS011;63097;51.872;4.460;2022-08-30T14:17:46;5.10;;;1.00;;
74593;SDS011;63097;51.872;4.460;2022-08-30T14:20:12;4.53;;;1.00;;
74593;SDS011;63097;51.872;4.460;2022-08-30T14:22:38;4.15;;;0.90;;
74593;SDS011;63097;51.872;4.460;2022-08-30T14:25:04;1.70;;;0.75;;
74593;SDS011;63097;51.872;4.460;2022-08-30T14:27:29;4.07;;;0.88;;
74593;SDS011;63097;51.872;4.460;2022-08-30T14:29:55;2.35;;;1.00;;
74593;SDS011;63097;51.872;4.460;2022-08-30T14:32:21;4.25;;;1.00;;
74593;SDS011;63097;51.872;4.460;2022-08-30T14:34:46;2.88;;;1.48;;
74593;SDS011;63097;51.872;4.460;2022-08-30T14:37:11;3.38;;;0.95;;
74593;SDS011;63097;51.872;4.460;2022-08-30T14:39:37;3.83;;;1.30;;
74593;SDS011;63097;51.872;4.460;2022-08-30T14:42:02;5.22;;;0.88;;
74593;SDS011;63097;51.872;4.460;2022-08-30T14:44:28;1.40;;;0.70;;
74593;SDS011;63097;51.872;4.460;2022-08-30T14:46:54;9.50;;;1.00;;
74593;SDS011;63097;51.872;4.460;2022-08-30T14:49:20;7.85;;;0.98;;
74593;SDS011;63097;51.872;4.460;2022-08-30T14:51:46;2.13;;;0.93;;
74593;SDS011;63097;51.872;4.460;2022-08-30T14:54:11;4.82;;;0.88;;
74593;SDS011;63097;51.872;4.460;2022-08-30T14:56:38;2.08;;;1.23;;
74593;SDS011;63097;51.872;4.460;2022-08-30T14:59:04;6.05;;;1.00;;
74593;SDS011;63097;51.872;4.460;2022-08-30T15:01:30;2.95;;;0.90;;
74593;SDS011;63097;51.872;4.460;2022-08-30T15:03:57;6.78;;;1.15;;
74593;SDS011;63097;51.872;4.460;2022-08-30T15:06:22;3.95;;;1.35;;
74593;SDS011;63097;51.872;4.460;2022-08-30T15:08:48;4.30;;;0.80;;
74593;SDS011;63097;51.872;4.460;2022-08-30T15:11:15;4.18;;;0.93;;
74593;SDS011;63097;51.872;4.460;2022-08-30T15:13:41;3.03;;;1.02;;
74593;SDS011;63097;51.872;4.460;2022-08-30T15:18:37;2.70;;;1.10;;
74593;SDS011;63097;51.872;4.460;2022-08-30T15:21:02;4.90;;;1.23;;
74593;SDS011;63097;51.872;4.460;2022-08-30T15:23:28;5.60;;;0.90;;
74593;SDS011;63097;51.872;4.460;2022-08-30T15:25:53;5.70;;;1.00;;
74593;SDS011;63097;51.872;4.460;2022-08-30T15:28:18;1.90;;;0.90;;
74593;SDS011;63097;51.872;4.460;2022-08-30T15:30:44;3.92;;;1.05;;
74593;SDS011;63097;51.872;4.460;2022-08-30T15:33:09;6.40;;;0.90;;
74593;SDS011;63097;51.872;4.460;2022-08-30T15:35:35;2.92;;;1.08;;
74593;SDS011;63097;51.872;4.460;2022-08-30T15:38:00;4.07;;;1.20;;
74593;SDS011;63097;51.872;4.460;2022-08-30T15:40:25;3.67;;;1.13;;
74593;SDS011;63097;51.872;4.460;2022-08-30T15:42:51;2.40;;;1.00;;
74593;SDS011;63097;51.872;4.460;2022-08-30T15:45:16;4.45;;;0.90;;
74593;SDS011;63097;51.872;4.460;2022-08-30T15:47:41;10.30;;;0.77;;
74593;SDS011;63097;51.872;4.460;2022-08-30T15:50:07;3.58;;;1.00;;
74593;SDS011;63097;51.872;4.460;2022-08-30T15:52:32;2.53;;;0.90;;
74593;SDS011;63097;51.872;4.460;2022-08-30T15:54:58;4.10;;;0.82;;
74593;SDS011;63097;51.872;4.460;2022-08-30T15:57:23;1.75;;;1.02;;
74593;SDS011;63097;51.872;4.460;2022-08-30T15:59:49;3.25;;;1.00;;
74593;SDS011;63097;51.872;4.460;2022-08-30T16:02:15;2.67;;;1.00;;